Time;durP1;ratioP1;P1;durP2;ratioP2;P2;SDS_P1;SDS_P2;PMS_P1;PMS_P2;Temp;Humidity;BMP_temperature;BMP_pressure;BME280_temperature;BME280_humidity;BME280_pressure;Samples;Min_cycle;Max_cycle;Signal;HPM_P1;HPM_P2
2021/11/22 00:02:24;;;;;;;16.40;6.15;;;;;;;;;;5022269;28;20037;-59
2021/11/22 00:04:50;;;;;;;33.13;6.85;;;;;;;;;;5025872;28;20033;-58
2021/11/22 00:07:17;;;;;;;23.10;6.60;;;;;;;;;;5018731;28;20041;-58
2021/11/22 00:09:43;;;;;;;21.50;6.78;;;;;;;;;;5015551;28;20481;-59
2021/11/22 00:12:09;;;;;;;24.10;6.97;;;;;;;;;;5020528;28;20129;-58
2021/11/22 00:14:36;;;;;;;27.27;6.70;;;;;;;;;;5017453;28;20421;-58
2021/11/22 00:17:03;;;;;;;19.08;5.68;;;;;;;;;;5016962;28;20026;-58
2021/11/22 00:19:29;;;;;;;25.88;6.18;;;;;;;;;;5022246;28;20048;-58
2021/11/22 00:21:55;;;;;;;30.90;5.70;;;;;;;;;;5019465;28;20112;-58
2021/11/22 00:24:21;;;;;;;20.58;5.45;;;;;;;;;;5015258;28;20480;-59
2021/11/22 00:26:46;;;;;;;23.45;5.25;;;;;;;;;;5019995;28;20095;-58
2021/11/22 00:29:12;;;;;;;31.88;5.43;;;;;;;;;;5016381;28;20053;-58
2021/11/22 00:31:37;;;;;;;20.60;5.30;;;;;;;;;;5013596;28;20076;-58
2021/11/22 00:34:04;;;;;;;23.38;4.50;;;;;;;;;;5015394;28;20402;-58
2021/11/22 00:36:29;;;;;;;20.67;5.22;;;;;;;;;;5018714;28;20030;-58
2021/11/22 00:38:55;;;;;;;17.45;4.50;;;;;;;;;;5016051;28;20551;-58
2021/11/22 00:41:21;;;;;;;27.33;5.78;;;;;;;;;;5014893;28;20026;-58
2021/11/22 00:43:46;;;;;;;14.57;5.38;;;;;;;;;;5018594;28;20030;-58
2021/11/22 00:46:12;;;;;;;24.85;5.43;;;;;;;;;;5020464;28;20503;-58
2021/11/22 00:48:37;;;;;;;14.30;4.40;;;;;;;;;;5023067;28;20046;-59
2021/11/22 00:51:03;;;;;;;21.13;6.65;;;;;;;;;;5016057;28;20393;-58
2021/11/22 00:53:29;;;;;;;28.33;5.68;;;;;;;;;;5019861;28;20068;-58
2021/11/22 00:55:56;;;;;;;21.10;5.50;;;;;;;;;;5024466;28;20072;-59
2021/11/22 00:58:21;;;;;;;33.50;5.57;;;;;;;;;;5020187;28;20089;-58
2021/11/22 01:00:47;;;;;;;24.95;5.95;;;;;;;;;;5018933;28;20041;-58
2021/11/22 01:03:13;;;;;;;23.75;5.72;;;;;;;;;;5016753;28;20033;-58
2021/11/22 01:05:39;;;;;;;22.42;5.18;;;;;;;;;;5016299;28;20057;-58
2021/11/22 01:08:05;;;;;;;20.45;5.03;;;;;;;;;;5016545;28;20459;-59
2021/11/22 01:10:31;;;;;;;21.40;4.25;;;;;;;;;;5015551;28;20095;-59
2021/11/22 01:12:57;;;;;;;20.60;5.25;;;;;;;;;;5020690;28;20505;-59
2021/11/22 01:15:23;;;;;;;20.70;5.35;;;;;;;;;;5023655;28;20108;-59
2021/11/22 01:17:51;;;;;;;16.88;4.05;;;;;;;;;;5020273;28;20034;-59
2021/11/22 01:20:18;;;;;;;17.63;4.00;;;;;;;;;;5019264;28;20029;-59
2021/11/22 01:22:46;;;;;;;19.77;4.40;;;;;;;;;;5022859;28;20033;-58
2021/11/22 01:25:13;;;;;;;18.58;4.72;;;;;;;;;;5016938;28;20408;-58
2021/11/22 01:27:39;;;;;;;17.45;4.38;;;;;;;;;;5015042;28;20068;-59
2021/11/22 01:30:09;;;;;;;13.73;4.20;;;;;;;;;;5017792;28;20025;-59
2021/11/22 01:32:35;;;;;;;25.90;4.85;;;;;;;;;;5017810;28;20022;-58
2021/11/22 01:35:01;;;;;;;9.82;4.72;;;;;;;;;;5021010;28;20416;-59
2021/11/22 01:37:26;;;;;;;30.33;4.53;;;;;;;;;;5016779;28;20586;-58
2021/11/22 01:39:52;;;;;;;15.75;4.93;;;;;;;;;;5022665;28;20026;-58
2021/11/22 01:42:17;;;;;;;24.00;4.82;;;;;;;;;;5019423;28;20492;-58
2021/11/22 01:44:43;;;;;;;21.98;4.60;;;;;;;;;;5021974;28;20037;-60
2021/11/22 01:47:09;;;;;;;24.27;4.85;;;;;;;;;;5022763;28;20041;-58
2021/11/22 01:49:35;;;;;;;19.00;4.55;;;;;;;;;;5019413;28;20025;-60
2021/11/22 01:52:01;;;;;;;14.90;4.20;;;;;;;;;;5015450;28;20379;-60
2021/11/22 01:54:27;;;;;;;14.57;4.32;;;;;;;;;;5014334;28;20032;-60
2021/11/22 01:56:52;;;;;;;14.35;4.35;;;;;;;;;;5019462;28;20124;-59
2021/11/22 01:59:18;;;;;;;18.50;5.13;;;;;;;;;;5015117;28;20483;-59
2021/11/22 02:01:46;;;;;;;24.73;4.82;;;;;;;;;;5012687;28;20033;-59
2021/11/22 02:04:12;;;;;;;33.65;5.97;;;;;;;;;;5017924;28;20079;-60
2021/11/22 02:06:38;;;;;;;15.98;4.32;;;;;;;;;;5018463;28;20037;-60
2021/11/22 02:09:05;;;;;;;21.15;4.38;;;;;;;;;;5011024;28;20079;-60
2021/11/22 02:11:31;;;;;;;18.70;4.50;;;;;;;;;;5015312;28;20040;-60
2021/11/22 02:13:56;;;;;;;24.60;5.18;;;;;;;;;;5012659;28;20022;-60
2021/11/22 02:16:22;;;;;;;14.48;4.70;;;;;;;;;;5019971;28;20029;-60
2021/11/22 02:18:48;;;;;;;19.63;5.10;;;;;;;;;;5016177;28;20087;-60
2021/11/22 02:21:14;;;;;;;23.35;4.35;;;;;;;;;;5012751;28;20080;-60
2021/11/22 02:23:40;;;;;;;21.33;4.43;;;;;;;;;;5017263;28;20481;-60
2021/11/22 02:26:06;;;;;;;27.23;4.45;;;;;;;;;;5012309;28;20069;-59
2021/11/22 02:28:32;;;;;;;13.40;4.13;;;;;;;;;;5016220;28;20021;-58
2021/11/22 02:30:57;;;;;;;22.67;5.63;;;;;;;;;;5021045;28;20064;-58
2021/11/22 02:33:24;;;;;;;16.13;4.95;;;;;;;;;;5021805;28;20060;-58
2021/11/22 02:35:59;;;;;;;23.85;4.75;;;;;;;;;;5020789;28;20037;-58
2021/11/22 02:38:27;;;;;;;18.55;4.53;;;;;;;;;;5015659;28;20037;-58
2021/11/22 02:40:53;;;;;;;25.90;5.10;;;;;;;;;;5018484;28;20033;-59
2021/11/22 02:43:19;;;;;;;17.13;3.97;;;;;;;;;;5019923;28;20580;-58
2021/11/22 02:45:46;;;;;;;23.77;5.05;;;;;;;;;;5022062;28;20088;-59
2021/11/22 02:48:12;;;;;;;22.67;4.70;;;;;;;;;;5025928;28;20382;-58
2021/11/22 02:50:37;;;;;;;23.73;5.00;;;;;;;;;;5023355;28;20803;-59
2021/11/22 02:53:03;;;;;;;17.52;4.47;;;;;;;;;;5025259;28;20479;-58
2021/11/22 02:55:29;;;;;;;18.52;4.05;;;;;;;;;;5022922;28;20029;-58
2021/11/22 02:57:54;;;;;;;17.27;3.85;;;;;;;;;;5020082;28;20037;-58
2021/11/22 03:00:23;;;;;;;35.35;4.93;;;;;;;;;;5023389;28;20083;-58
2021/11/22 03:02:50;;;;;;;13.23;4.22;;;;;;;;;;5014399;28;20029;-58
2021/11/22 03:05:17;;;;;;;14.55;4.75;;;;;;;;;;5019701;28;20756;-59
2021/11/22 03:07:43;;;;;;;19.67;5.47;;;;;;;;;;5021492;28;20029;-58
2021/11/22 03:10:12;;;;;;;32.50;6.53;;;;;;;;;;5019699;28;20061;-58
2021/11/22 03:12:38;;;;;;;21.48;5.63;;;;;;;;;;5018492;28;20037;-58
2021/11/22 03:15:10;;;;;;;23.30;5.40;;;;;;;;;;5021744;28;20053;-58
2021/11/22 03:17:35;;;;;;;17.85;5.22;;;;;;;;;;5019099;28;20026;-58
2021/11/22 03:20:01;;;;;;;25.77;7.28;;;;;;;;;;5022297;28;20041;-58
2021/11/22 03:22:27;;;;;;;23.60;5.25;;;;;;;;;;5019028;28;20126;-58
2021/11/22 03:24:52;;;;;;;17.30;4.90;;;;;;;;;;5022950;28;20507;-58
2021/11/22 03:27:18;;;;;;;19.63;4.30;;;;;;;;;;5027127;28;20071;-58
2021/11/22 03:29:43;;;;;;;24.63;4.72;;;;;;;;;;5023985;28;20022;-58
2021/11/22 03:32:09;;;;;;;24.52;5.78;;;;;;;;;;5016543;28;20500;-58
2021/11/22 03:34:34;;;;;;;19.95;5.30;;;;;;;;;;5022427;28;20321;-58
2021/11/22 03:37:03;;;;;;;23.50;5.25;;;;;;;;;;5020658;28;20049;-58
2021/11/22 03:39:30;;;;;;;23.02;4.75;;;;;;;;;;5022225;28;20610;-58
2021/11/22 03:41:57;;;;;;;15.43;4.68;;;;;;;;;;5023427;28;20448;-58
2021/11/22 03:44:24;;;;;;;22.17;6.15;;;;;;;;;;5023391;28;20056;-59
2021/11/22 03:46:55;;;;;;;21.50;4.55;;;;;;;;;;5025880;28;20025;-59
2021/11/22 03:49:22;;;;;;;26.23;4.43;;;;;;;;;;5017560;28;20702;-59
2021/11/22 03:51:48;;;;;;;14.38;4.35;;;;;;;;;;5020640;28;20459;-59
2021/11/22 03:54:15;;;;;;;23.50;4.50;;;;;;;;;;5021024;28;20156;-58
2021/11/22 03:56:41;;;;;;;15.18;4.93;;;;;;;;;;5020032;28;20107;-58
2021/11/22 03:59:07;;;;;;;20.30;4.07;;;;;;;;;;5020521;28;20488;-59
2021/11/22 04:01:34;;;;;;;19.77;4.03;;;;;;;;;;5016568;28;20041;-59
2021/11/22 04:04:00;;;;;;;16.60;4.30;;;;;;;;;;5036991;28;20330;-59
2021/11/22 04:06:25;;;;;;;12.90;3.65;;;;;;;;;;5015058;28;20268;-59
2021/11/22 04:08:51;;;;;;;18.77;5.40;;;;;;;;;;5014056;28;20111;-58
2021/11/22 04:11:16;;;;;;;17.80;3.90;;;;;;;;;;5022712;28;20274;-58
2021/11/22 04:13:42;;;;;;;10.63;3.80;;;;;;;;;;5019670;28;20067;-59
2021/11/22 04:16:08;;;;;;;10.07;3.65;;;;;;;;;;5018461;28;20430;-59
2021/11/22 04:18:33;;;;;;;16.15;3.63;;;;;;;;;;5021870;28;20037;-59
2021/11/22 04:20:59;;;;;;;15.50;4.13;;;;;;;;;;5022430;28;20191;-58
2021/11/22 04:23:25;;;;;;;12.95;3.47;;;;;;;;;;5020380;28;20397;-58
2021/11/22 04:25:51;;;;;;;10.68;3.47;;;;;;;;;;5023293;28;20029;-58
2021/11/22 04:28:17;;;;;;;15.35;3.95;;;;;;;;;;5026106;28;20017;-58
2021/11/22 04:30:42;;;;;;;21.33;4.20;;;;;;;;;;5026400;28;20087;-59
2021/11/22 04:33:09;;;;;;;21.45;3.67;;;;;;;;;;5015121;28;20085;-59
2021/11/22 04:35:36;;;;;;;8.95;3.40;;;;;;;;;;5024929;28;20041;-59
2021/11/22 04:38:02;;;;;;;18.95;4.20;;;;;;;;;;5025316;28;20037;-59
2021/11/22 04:40:28;;;;;;;12.85;3.58;;;;;;;;;;5019749;28;20029;-59
2021/11/22 04:42:53;;;;;;;17.08;3.58;;;;;;;;;;5018634;28;20436;-59
2021/11/22 04:45:23;;;;;;;17.52;4.20;;;;;;;;;;5023049;28;20080;-59
2021/11/22 04:47:50;;;;;;;16.95;3.75;;;;;;;;;;5018713;28;20472;-59
2021/11/22 04:50:18;;;;;;;21.63;3.95;;;;;;;;;;5016138;28;20029;-59
2021/11/22 04:52:45;;;;;;;24.33;4.10;;;;;;;;;;5020444;28;20120;-59
2021/11/22 04:55:14;;;;;;;18.05;4.03;;;;;;;;;;5027144;28;20033;-59
2021/11/22 04:57:40;;;;;;;16.42;3.42;;;;;;;;;;5019824;28;20034;-59
2021/11/22 05:00:07;;;;;;;22.25;5.18;;;;;;;;;;5033339;28;20060;-59
2021/11/22 05:02:33;;;;;;;15.93;3.22;;;;;;;;;;5015828;28;20094;-59
2021/11/22 05:04:58;;;;;;;17.23;3.75;;;;;;;;;;5019078;28;21023;-58
2021/11/22 05:07:24;;;;;;;9.77;3.20;;;;;;;;;;5016880;28;20340;-58
2021/11/22 05:09:49;;;;;;;25.02;3.15;;;;;;;;;;5017130;28;20033;-59
2021/11/22 05:12:16;;;;;;;14.13;2.92;;;;;;;;;;5017123;28;20124;-58
2021/11/22 05:14:42;;;;;;;12.77;3.63;;;;;;;;;;5017168;28;20104;-59
2021/11/22 05:17:08;;;;;;;10.52;3.15;;;;;;;;;;5017781;28;20040;-58
2021/11/22 05:19:33;;;;;;;9.20;3.20;;;;;;;;;;5022564;28;20484;-58
2021/11/22 05:22:00;;;;;;;23.48;2.90;;;;;;;;;;5015232;28;20030;-59
2021/11/22 05:24:27;;;;;;;23.05;4.47;;;;;;;;;;5021070;28;20095;-59
2021/11/22 05:26:54;;;;;;;10.32;3.33;;;;;;;;;;5017823;28;20041;-58
2021/11/22 05:29:19;;;;;;;21.58;3.88;;;;;;;;;;5023393;28;20030;-58
2021/11/22 05:31:45;;;;;;;8.77;3.22;;;;;;;;;;5015681;28;20624;-58
2021/11/22 05:34:11;;;;;;;14.43;3.75;;;;;;;;;;5019934;28;20048;-58
2021/11/22 05:36:36;;;;;;;13.65;3.58;;;;;;;;;;5018102;28;20105;-58
2021/11/22 05:39:04;;;;;;;17.13;3.47;;;;;;;;;;5018847;28;20407;-59
2021/11/22 05:41:29;;;;;;;14.93;3.88;;;;;;;;;;5013971;28;20056;-59
2021/11/22 05:43:55;;;;;;;12.13;2.88;;;;;;;;;;5017754;28;20053;-58
2021/11/22 05:46:21;;;;;;;25.42;3.80;;;;;;;;;;5021995;28;20034;-59
2021/11/22 05:48:46;;;;;;;14.70;3.20;;;;;;;;;;5015660;28;20065;-58
2021/11/22 05:51:13;;;;;;;20.80;3.47;;;;;;;;;;5018822;28;20041;-60
2021/11/22 05:53:41;;;;;;;14.25;3.95;;;;;;;;;;5010647;28;20575;-59
2021/11/22 05:56:07;;;;;;;20.00;3.53;;;;;;;;;;5017086;28;20060;-59
2021/11/22 05:58:33;;;;;;;20.30;3.53;;;;;;;;;;5019736;28;20599;-58
2021/11/22 06:01:00;;;;;;;11.75;3.42;;;;;;;;;;5017280;28;20109;-57
2021/11/22 06:03:27;;;;;;;7.25;2.83;;;;;;;;;;5014841;28;20042;-58
2021/11/22 06:05:52;;;;;;;23.67;3.00;;;;;;;;;;5017515;28;20034;-59
2021/11/22 06:08:18;;;;;;;9.82;2.78;;;;;;;;;;5015076;28;20065;-59
2021/11/22 06:10:44;;;;;;;14.80;3.67;;;;;;;;;;5012827;28;20124;-59
2021/11/22 06:13:12;;;;;;;12.68;3.08;;;;;;;;;;5014620;28;20669;-58
2021/11/22 06:15:39;;;;;;;11.68;3.22;;;;;;;;;;5017353;28;20064;-59
2021/11/22 06:18:04;;;;;;;17.17;3.42;;;;;;;;;;5018282;28;20132;-59
2021/11/22 06:20:30;;;;;;;17.50;4.72;;;;;;;;;;5014634;28;20216;-58
2021/11/22 06:22:56;;;;;;;13.55;3.20;;;;;;;;;;5016663;28;20038;-59
2021/11/22 06:25:21;;;;;;;11.98;3.60;;;;;;;;;;5021300;28;20056;-59
2021/11/22 06:27:47;;;;;;;12.82;3.15;;;;;;;;;;5017552;28;20101;-59
2021/11/22 06:30:12;;;;;;;20.77;3.63;;;;;;;;;;5012930;28;20037;-58
2021/11/22 06:32:38;;;;;;;14.30;3.45;;;;;;;;;;5013722;28;20262;-58
2021/11/22 06:35:05;;;;;;;12.52;3.47;;;;;;;;;;5018023;28;20549;-58
2021/11/22 06:37:32;;;;;;;11.60;3.40;;;;;;;;;;5023439;28;20116;-58
2021/11/22 06:39:59;;;;;;;17.88;3.58;;;;;;;;;;5010917;28;20060;-58
2021/11/22 06:42:25;;;;;;;9.70;3.40;;;;;;;;;;5014767;28;20037;-59
2021/11/22 06:44:51;;;;;;;11.65;3.38;;;;;;;;;;5013059;28;20535;-58
2021/11/22 06:47:17;;;;;;;28.85;3.83;;;;;;;;;;5016723;28;20485;-58
2021/11/22 06:49:43;;;;;;;13.52;2.95;;;;;;;;;;5017960;28;20068;-59
2021/11/22 06:52:08;;;;;;;14.48;4.07;;;;;;;;;;5021390;28;20086;-59
2021/11/22 06:54:34;;;;;;;23.95;3.97;;;;;;;;;;5017770;28;20022;-59
2021/11/22 06:57:01;;;;;;;15.93;4.13;;;;;;;;;;5012351;28;20084;-59
2021/11/22 06:59:28;;;;;;;14.88;3.63;;;;;;;;;;5016624;28;20773;-59
2021/11/22 07:01:54;;;;;;;15.60;3.42;;;;;;;;;;5018834;28;20033;-59
2021/11/22 07:04:19;;;;;;;12.57;3.20;;;;;;;;;;5019759;28;20086;-59
2021/11/22 07:06:45;;;;;;;19.60;3.95;;;;;;;;;;5021011;28;20037;-59
2021/11/22 07:09:11;;;;;;;8.00;3.05;;;;;;;;;;5015605;28;20041;-59
2021/11/22 07:11:36;;;;;;;18.75;3.95;;;;;;;;;;5020204;28;20496;-58
2021/11/22 07:14:04;;;;;;;18.88;2.92;;;;;;;;;;5013756;28;20106;-59
2021/11/22 07:16:31;;;;;;;12.90;3.60;;;;;;;;;;5012577;28;20033;-59
2021/11/22 07:18:57;;;;;;;15.57;3.20;;;;;;;;;;5012077;28;20022;-58
2021/11/22 07:21:23;;;;;;;8.98;3.45;;;;;;;;;;5009892;28;20034;-57
2021/11/22 07:23:50;;;;;;;20.77;3.10;;;;;;;;;;5014566;28;20029;-58
2021/11/22 07:26:16;;;;;;;12.63;2.97;;;;;;;;;;5025406;28;20036;-58
2021/11/22 07:28:41;;;;;;;19.42;3.83;;;;;;;;;;5024325;28;20031;-58
2021/11/22 07:31:07;;;;;;;9.75;3.00;;;;;;;;;;5020668;28;20481;-58
2021/11/22 07:33:33;;;;;;;14.68;3.35;;;;;;;;;;5017795;28;20040;-58
2021/11/22 07:35:59;;;;;;;19.75;3.47;;;;;;;;;;5019050;28;20029;-58
2021/11/22 07:38:24;;;;;;;9.57;3.85;;;;;;;;;;5016267;28;20026;-58
2021/11/22 07:40:51;;;;;;;17.23;3.53;;;;;;;;;;5020881;28;20595;-58
2021/11/22 07:43:17;;;;;;;9.38;3.53;;;;;;;;;;5013156;28;20389;-58
2021/11/22 07:45:43;;;;;;;11.30;3.17;;;;;;;;;;5017425;28;20030;-58
2021/11/22 07:48:09;;;;;;;17.45;3.97;;;;;;;;;;5014298;28;20111;-58
2021/11/22 07:50:34;;;;;;;10.85;3.50;;;;;;;;;;5019487;28;20048;-58
2021/11/22 07:53:00;;;;;;;17.35;3.97;;;;;;;;;;5019238;28;20033;-58
2021/11/22 07:55:25;;;;;;;14.85;3.42;;;;;;;;;;5020984;28;20064;-58
2021/11/22 07:57:53;;;;;;;18.90;3.45;;;;;;;;;;5020581;28;20124;-59
2021/11/22 08:00:20;;;;;;;14.63;4.85;;;;;;;;;;5019287;28;20025;-59
2021/11/22 08:02:46;;;;;;;15.75;4.03;;;;;;;;;;5015149;28;20033;-59
2021/11/22 08:05:12;;;;;;;12.07;3.78;;;;;;;;;;5020398;28;20040;-59
2021/11/22 08:07:40;;;;;;;19.95;3.90;;;;;;;;;;5015693;28;20040;-59
2021/11/22 08:10:17;;;;;;;13.63;4.25;;;;;;;;;;5019941;28;20067;-58
2021/11/22 08:12:43;;;;;;;14.20;4.18;;;;;;;;;;5022750;28;20047;-58
2021/11/22 08:15:12;;;;;;;14.60;4.28;;;;;;;;;;5021455;28;20037;-59
2021/11/22 08:17:39;;;;;;;13.30;3.80;;;;;;;;;;5015911;28;20128;-58
2021/11/22 08:20:13;;;;;;;16.90;4.18;;;;;;;;;;5022982;28;20037;-59
2021/11/22 08:22:39;;;;;;;8.73;3.88;;;;;;;;;;5014225;28;20025;-58
2021/11/22 08:25:06;;;;;;;10.05;3.55;;;;;;;;;;5019478;28;20111;-58
2021/11/22 08:27:31;;;;;;;20.65;4.20;;;;;;;;;;5033932;28;20057;-58
2021/11/22 08:30:02;;;;;;;17.25;4.35;;;;;;;;;;5019669;28;20026;-58
2021/11/22 08:32:28;;;;;;;17.98;4.72;;;;;;;;;;5017679;28;20539;-58
2021/11/22 08:34:53;;;;;;;16.08;3.97;;;;;;;;;;5025361;28;20056;-58
2021/11/22 08:37:19;;;;;;;20.17;4.82;;;;;;;;;;5014811;28;20153;-59
2021/11/22 08:39:45;;;;;;;16.48;4.13;;;;;;;;;;5015603;28;20036;-59
2021/11/22 08:42:10;;;;;;;14.57;5.25;;;;;;;;;;5011741;28;20460;-59
2021/11/22 08:44:37;;;;;;;21.70;4.75;;;;;;;;;;5017598;28;20393;-58
2021/11/22 08:47:04;;;;;;;18.52;5.60;;;;;;;;;;5018355;28;20131;-59
2021/11/22 08:49:30;;;;;;;16.20;5.20;;;;;;;;;;5022019;28;20029;-59
2021/11/22 08:51:57;;;;;;;13.68;5.10;;;;;;;;;;5025022;28;20053;-58
2021/11/22 08:54:23;;;;;;;18.90;5.65;;;;;;;;;;5019866;28;20033;-58
2021/11/22 08:56:49;;;;;;;22.35;5.47;;;;;;;;;;5018733;28;20436;-58
2021/11/22 08:59:16;;;;;;;11.68;4.80;;;;;;;;;;5017439;28;20566;-58
2021/11/22 09:01:42;;;;;;;14.55;5.00;;;;;;;;;;5021985;28;20021;-58
2021/11/22 09:04:07;;;;;;;16.50;5.15;;;;;;;;;;5023714;28;20037;-59
2021/11/22 09:06:34;;;;;;;16.77;5.03;;;;;;;;;;5015323;28;20037;-58
2021/11/22 09:09:02;;;;;;;19.48;3.92;;;;;;;;;;5016668;28;20033;-58
2021/11/22 09:11:27;;;;;;;14.57;4.63;;;;;;;;;;5014690;28;20193;-58
2021/11/22 09:13:53;;;;;;;16.17;4.57;;;;;;;;;;5017853;28;20120;-58
2021/11/22 09:16:20;;;;;;;16.55;4.13;;;;;;;;;;5019516;28;20040;-58
2021/11/22 09:18:46;;;;;;;21.77;4.65;;;;;;;;;;5016307;28;20034;-58
2021/11/22 09:21:11;;;;;;;23.63;7.43;;;;;;;;;;5015053;28;20032;-58
2021/11/22 09:23:37;;;;;;;20.23;5.18;;;;;;;;;;5025642;28;20424;-58
2021/11/22 09:26:02;;;;;;;16.98;4.75;;;;;;;;;;5016956;28;20472;-59
2021/11/22 09:28:28;;;;;;;18.02;5.50;;;;;;;;;;5012894;28;20039;-59
2021/11/22 09:30:53;;;;;;;23.83;5.93;;;;;;;;;;5019859;28;20080;-59
2021/11/22 09:33:19;;;;;;;16.95;6.18;;;;;;;;;;5019081;28;20030;-59
2021/11/22 09:35:44;;;;;;;28.58;8.25;;;;;;;;;;5014292;28;20025;-59
2021/11/22 09:38:10;;;;;;;22.80;8.80;;;;;;;;;;5020886;28;20580;-58
2021/11/22 09:40:36;;;;;;;26.15;9.93;;;;;;;;;;5016365;28;20029;-60
2021/11/22 09:43:03;;;;;;;37.20;9.15;;;;;;;;;;5021178;28;20067;-59
2021/11/22 09:45:30;;;;;;;40.47;10.13;;;;;;;;;;5019501;28;20045;-59
2021/11/22 09:47:58;;;;;;;37.90;12.02;;;;;;;;;;5012970;28;20053;-59
2021/11/22 09:50:25;;;;;;;30.92;10.82;;;;;;;;;;5013276;28;20036;-59
2021/11/22 09:52:50;;;;;;;28.15;8.77;;;;;;;;;;5014761;28;20682;-58
2021/11/22 09:55:17;;;;;;;40.22;10.40;;;;;;;;;;5014332;28;20132;-59
2021/11/22 09:57:43;;;;;;;31.50;10.07;;;;;;;;;;5015325;28;20107;-59
2021/11/22 10:00:10;;;;;;;42.88;9.88;;;;;;;;;;5015053;28;20065;-59
2021/11/22 10:02:55;;;;;;;29.38;9.93;;;;;;;;;;5017929;28;20040;-58
2021/11/22 10:05:33;;;;;;;27.58;9.88;;;;;;;;;;5013910;28;20033;-58
2021/11/22 10:08:12;;;;;;;22.40;8.57;;;;;;;;;;5019035;28;20057;-58
2021/11/22 10:10:48;;;;;;;26.52;8.77;;;;;;;;;;5012361;28;20034;-58
2021/11/22 10:13:21;;;;;;;24.90;9.10;;;;;;;;;;5015673;28;20029;-58
2021/11/22 10:15:48;;;;;;;29.45;7.68;;;;;;;;;;5018215;28;20044;-58
2021/11/22 10:18:40;;;;;;;24.77;6.25;;;;;;;;;;5016116;28;20037;-59
2021/11/22 10:21:08;;;;;;;20.90;6.25;;;;;;;;;;5008107;28;20045;-59
2021/11/22 10:23:37;;;;;;;24.50;5.40;;;;;;;;;;5015027;28;20036;-58
2021/11/22 10:26:03;;;;;;;20.55;5.22;;;;;;;;;;5018438;28;20441;-59
2021/11/22 10:28:32;;;;;;;24.55;4.13;;;;;;;;;;5016858;28;20030;-59
2021/11/22 10:31:02;;;;;;;19.52;4.43;;;;;;;;;;5012583;28;20033;-58
2021/11/22 10:33:32;;;;;;;23.70;4.88;;;;;;;;;;5018878;28;20026;-59
2021/11/22 10:36:01;;;;;;;18.10;5.03;;;;;;;;;;5014786;28;20032;-59
2021/11/22 10:38:28;;;;;;;20.17;4.63;;;;;;;;;;5013514;28;20555;-59
2021/11/22 10:41:08;;;;;;;27.10;5.63;;;;;;;;;;5016766;28;20022;-59
2021/11/22 10:43:49;;;;;;;26.10;5.03;;;;;;;;;;5017585;28;20100;-58
2021/11/22 10:46:16;;;;;;;19.95;4.20;;;;;;;;;;5018590;28;20061;-59
2021/11/22 10:48:47;;;;;;;17.23;4.00;;;;;;;;;;5021831;28;20057;-59
2021/11/22 10:51:22;;;;;;;14.63;3.83;;;;;;;;;;5022094;28;20033;-58
2021/11/22 10:53:49;;;;;;;19.38;4.05;;;;;;;;;;5022870;28;20599;-59
2021/11/22 10:56:17;;;;;;;20.30;4.00;;;;;;;;;;5015153;28;20026;-59
2021/11/22 10:58:47;;;;;;;25.90;4.55;;;;;;;;;;5012216;28;20022;-59
2021/11/22 11:01:17;;;;;;;15.95;3.10;;;;;;;;;;5019998;28;20178;-59
2021/11/22 11:03:55;;;;;;;25.17;5.05;;;;;;;;;;5018169;28;20049;-59
2021/11/22 11:06:33;;;;;;;28.25;4.10;;;;;;;;;;5016601;28;20082;-59
2021/11/22 11:09:00;;;;;;;21.30;4.40;;;;;;;;;;5016650;28;20067;-59
2021/11/22 11:11:26;;;;;;;21.50;3.95;;;;;;;;;;5013333;28;20323;-59
2021/11/22 11:13:52;;;;;;;17.10;4.18;;;;;;;;;;5018983;28;20249;-59
2021/11/22 11:16:19;;;;;;;14.23;3.58;;;;;;;;;;5017179;28;20029;-59
2021/11/22 11:18:56;;;;;;;27.17;4.53;;;;;;;;;;5017021;28;20021;-59
2021/11/22 11:21:29;;;;;;;25.90;3.70;;;;;;;;;;5019876;28;20056;-59
2021/11/22 11:23:57;;;;;;;27.90;5.15;;;;;;;;;;5024460;28;20424;-59
2021/11/22 11:26:25;;;;;;;17.50;4.15;;;;;;;;;;5022920;28;20029;-58
2021/11/22 11:28:51;;;;;;;17.83;4.60;;;;;;;;;;5023286;28;20051;-58
2021/11/22 11:31:16;;;;;;;13.63;3.45;;;;;;;;;;5014902;28;20428;-58
2021/11/22 11:33:42;;;;;;;12.50;4.38;;;;;;;;;;5016127;28;20411;-58
2021/11/22 11:36:19;;;;;;;20.10;3.97;;;;;;;;;;5021779;28;20037;-59
2021/11/22 11:39:41;;;;;;;18.20;4.60;;;;;;;;;;5022058;28;20068;-59
2021/11/22 11:42:32;;;;;;;14.43;4.05;;;;;;;;;;4970317;28;20038;-59
2021/11/22 11:45:21;;;;;;;19.20;4.30;;;;;;;;;;5023961;28;20108;-59
2021/11/22 11:48:07;;;;;;;16.65;5.10;;;;;;;;;;5000319;28;20919;-59
2021/11/22 11:50:37;;;;;;;20.55;4.93;;;;;;;;;;5015333;28;20030;-58
2021/11/22 11:53:08;;;;;;;16.83;5.53;;;;;;;;;;5019198;28;20041;-59
2021/11/22 11:55:35;;;;;;;18.38;4.38;;;;;;;;;;5016982;28;20065;-58
2021/11/22 11:58:27;;;;;;;14.80;4.10;;;;;;;;;;5024138;28;20397;-59
2021/11/22 12:01:13;;;;;;;23.15;4.63;;;;;;;;;;5018878;28;20120;-59
2021/11/22 12:04:01;;;;;;;12.02;4.03;;;;;;;;;;5023942;28;20037;-58
2021/11/22 12:06:50;;;;;;;18.85;4.28;;;;;;;;;;5020921;28;20112;-58
2021/11/22 12:09:39;;;;;;;16.40;3.95;;;;;;;;;;5016117;28;20044;-59
2021/11/22 12:12:07;;;;;;;17.92;4.50;;;;;;;;;;5022185;28;20032;-60
2021/11/22 12:14:52;;;;;;;16.02;4.43;;;;;;;;;;5020688;28;20514;-60
2021/11/22 12:17:39;;;;;;;29.98;4.72;;;;;;;;;;5022531;28;20040;-59
2021/11/22 12:20:24;;;;;;;12.38;3.88;;;;;;;;;;5023269;28;20256;-59
2021/11/22 12:23:03;;;;;;;15.70;3.55;;;;;;;;;;5019964;28;20337;-59
2021/11/22 12:25:38;;;;;;;22.27;4.00;;;;;;;;;;5016650;28;20038;-59
2021/11/22 12:28:18;;;;;;;18.55;4.25;;;;;;;;;;5016842;28;20482;-59
2021/11/22 12:31:06;;;;;;;19.45;4.28;;;;;;;;;;5019886;28;20041;-59
2021/11/22 12:33:43;;;;;;;21.70;4.88;;;;;;;;;;5024533;28;20026;-59
2021/11/22 12:36:12;;;;;;;15.93;4.10;;;;;;;;;;5024018;28;21147;-59
2021/11/22 12:38:40;;;;;;;19.92;5.00;;;;;;;;;;5024578;28;20025;-59
2021/11/22 12:41:11;;;;;;;33.03;6.32;;;;;;;;;;5018922;28;20452;-59
2021/11/22 12:43:48;;;;;;;19.50;5.75;;;;;;;;;;5015299;28;20030;-59
2021/11/22 12:46:21;;;;;;;20.13;6.50;;;;;;;;;;5017280;28;20037;-59
2021/11/22 12:48:48;;;;;;;21.48;5.43;;;;;;;;;;5016302;28;20065;-59
2021/11/22 12:51:23;;;;;;;18.33;4.53;;;;;;;;;;5019926;28;20033;-59
2021/11/22 12:54:04;;;;;;;12.40;4.20;;;;;;;;;;5012827;28;20058;-59
2021/11/22 12:56:34;;;;;;;19.07;5.43;;;;;;;;;;5023028;28;20258;-59
2021/11/22 12:59:06;;;;;;;18.13;4.57;;;;;;;;;;5020337;28;20025;-59
2021/11/22 13:01:31;;;;;;;18.42;4.60;;;;;;;;;;5017601;28;20497;-59
2021/11/22 13:03:57;;;;;;;20.75;4.95;;;;;;;;;;5020966;28;20026;-59
2021/11/22 13:06:35;;;;;;;17.90;4.75;;;;;;;;;;5016650;28;20037;-59
2021/11/22 13:09:01;;;;;;;19.35;5.25;;;;;;;;;;5016020;28;20571;-59
2021/11/22 13:11:29;;;;;;;27.83;5.25;;;;;;;;;;5015737;28;20030;-59
2021/11/22 13:13:59;;;;;;;19.73;5.65;;;;;;;;;;5019105;28;20025;-59
2021/11/22 13:16:27;;;;;;;23.67;5.07;;;;;;;;;;5020180;28;20045;-59
2021/11/22 13:19:03;;;;;;;22.65;5.55;;;;;;;;;;5012651;28;20059;-59
2021/11/22 13:21:48;;;;;;;26.83;5.30;;;;;;;;;;5016764;28;20032;-58
2021/11/22 13:24:18;;;;;;;18.30;6.15;;;;;;;;;;5016494;28;20409;-59
2021/11/22 13:26:44;;;;;;;23.42;6.65;;;;;;;;;;5019532;28;20028;-58
2021/11/22 13:29:21;;;;;;;22.63;4.97;;;;;;;;;;5015959;28;20021;-58
2021/11/22 13:31:50;;;;;;;19.92;5.15;;;;;;;;;;5019560;28;20057;-58
2021/11/22 13:34:19;;;;;;;14.75;4.55;;;;;;;;;;5017610;28;20409;-58
2021/11/22 13:36:51;;;;;;;24.42;5.53;;;;;;;;;;5013650;28;20053;-58
2021/11/22 13:39:28;;;;;;;27.73;5.45;;;;;;;;;;5015528;28;20374;-58
2021/11/22 13:42:04;;;;;;;18.90;5.63;;;;;;;;;;5016568;28;20428;-59
2021/11/22 13:44:32;;;;;;;16.60;4.18;;;;;;;;;;5017846;28;20128;-59
2021/11/22 13:47:04;;;;;;;17.85;4.60;;;;;;;;;;5014560;28;20135;-59
2021/11/22 13:49:30;;;;;;;22.05;4.32;;;;;;;;;;5013653;28;20033;-59
2021/11/22 13:51:56;;;;;;;20.60;4.95;;;;;;;;;;5021056;28;20122;-59
2021/11/22 13:54:24;;;;;;;23.85;5.00;;;;;;;;;;5012512;28;20034;-59
2021/11/22 13:57:00;;;;;;;23.88;5.25;;;;;;;;;;5011534;28;20183;-59
2021/11/22 13:59:37;;;;;;;15.18;4.85;;;;;;;;;;5021712;28;20128;-59
2021/11/22 14:02:08;;;;;;;19.50;4.95;;;;;;;;;;5014253;28;20024;-59
2021/11/22 14:04:37;;;;;;;17.93;5.03;;;;;;;;;;5018127;28;20480;-59
2021/11/22 14:07:11;;;;;;;15.80;4.88;;;;;;;;;;5018687;28;20037;-59
2021/11/22 14:09:37;;;;;;;21.90;6.15;;;;;;;;;;5018111;28;20037;-59
2021/11/22 14:12:05;;;;;;;22.52;5.57;;;;;;;;;;5016910;28;20397;-60
2021/11/22 14:14:32;;;;;;;20.55;5.32;;;;;;;;;;5020004;28;20047;-59
2021/11/22 14:17:01;;;;;;;25.00;5.45;;;;;;;;;;5019649;28;20119;-58
2021/11/22 14:19:28;;;;;;;15.20;4.97;;;;;;;;;;5018123;28;20033;-58
2021/11/22 14:22:06;;;;;;;14.77;5.20;;;;;;;;;;5012828;28;20025;-58
2021/11/22 14:24:34;;;;;;;21.67;5.10;;;;;;;;;;5014011;28;20460;-59
2021/11/22 14:27:00;;;;;;;35.80;5.95;;;;;;;;;;5011209;28;20064;-59
2021/11/22 14:29:30;;;;;;;17.40;4.90;;;;;;;;;;5017769;28;20048;-58
2021/11/22 14:32:02;;;;;;;21.35;4.85;;;;;;;;;;5028879;28;20108;-58
2021/11/22 14:34:28;;;;;;;10.48;3.80;;;;;;;;;;5015854;28;20107;-58
2021/11/22 14:36:56;;;;;;;18.80;5.43;;;;;;;;;;5017475;28;20488;-60
2021/11/22 14:39:34;;;;;;;15.23;4.90;;;;;;;;;;5020775;28;20026;-59